Time;durP1;ratioP1;P1;durP2;ratioP2;P2;SDS_P1;SDS_P2;PMS_P1;PMS_P2;Temp;Humidity;BMP_temperature;BMP_pressure;BME280_temperature;BME280_humidity;BME280_pressure;Samples;Min_cycle;Max_cycle;Signal;HPM_P1;HPM_P2
2023/03/30 00:00:54;;;;;;;7.20;4.40;;;;;;;4.93;62.41;98635.54;104798;1263;108499;-67
2023/03/30 00:03:22;;;;;;;6.70;3.80;;;;;;;4.88;62.64;98630.11;104814;1264;98022;-67
2023/03/30 00:05:50;;;;;;;9.40;5.10;;;;;;;4.85;62.71;98630.88;104874;1264;99189;-67
2023/03/30 00:08:18;;;;;;;9.60;5.30;;;;;;;4.81;62.97;98625.25;104698;1263;112305;-67
2023/03/30 00:10:46;;;;;;;6.30;3.90;;;;;;;4.77;63.02;98624.02;104721;1273;97961;-67
2023/03/30 00:13:13;;;;;;;6.90;4.20;;;;;;;4.73;63.13;98624.46;104521;1266;107899;-68
2023/03/30 00:15:40;;;;;;;7.30;4.00;;;;;;;4.70;63.46;98619.80;104716;1272;98021;-68
2023/03/30 00:18:07;;;;;;;11.90;5.20;;;;;;;4.66;63.69;98618.23;104491;1262;99191;-68
2023/03/30 00:20:36;;;;;;;10.30;5.10;;;;;;;4.63;63.55;98615.08;104665;1257;98588;-67
2023/03/30 00:23:03;;;;;;;11.80;6.50;;;;;;;4.59;63.50;98610.77;104541;1257;98119;-68
2023/03/30 00:25:30;;;;;;;9.60;4.90;;;;;;;4.56;63.78;98613.96;104615;1272;99113;-68
2023/03/30 00:27:57;;;;;;;8.90;4.50;;;;;;;4.52;63.61;98611.59;104852;1271;97966;-68
2023/03/30 00:30:24;;;;;;;11.50;4.90;;;;;;;4.49;63.82;98610.52;104743;1273;98506;-67
2023/03/30 00:32:52;;;;;;;8.90;5.00;;;;;;;4.47;64.21;98610.17;104833;1264;97898;-68
2023/03/30 00:35:19;;;;;;;8.50;5.40;;;;;;;4.43;64.12;98613.83;104700;1262;98037;-68
2023/03/30 00:37:48;;;;;;;10.00;4.70;;;;;;;4.44;64.29;98610.63;104840;1269;97923;-67
2023/03/30 00:40:20;;;;;;;13.20;7.20;;;;;;;4.47;64.46;98605.73;104918;1273;98020;-67
2023/03/30 00:42:47;;;;;;;11.40;5.90;;;;;;;4.49;64.43;98603.27;104685;1258;99294;-68
2023/03/30 00:45:24;;;;;;;7.00;3.90;;;;;;;4.51;64.08;98600.46;104867;1271;98009;-67
2023/03/30 00:47:56;;;;;;;9.00;4.60;;;;;;;4.55;64.48;98595.45;104390;1266;98426;-65
2023/03/30 00:50:28;;;;;;;10.00;5.20;;;;;;;4.59;64.15;98593.65;104425;1275;108286;-67
2023/03/30 00:52:57;;;;;;;13.00;6.20;;;;;;;4.62;64.35;98592.13;104458;1270;99104;-72
2023/03/30 00:55:27;;;;;;;11.50;5.30;;;;;;;4.65;64.32;98585.55;104860;1271;97960;-67
2023/03/30 00:57:55;;;;;;;10.60;5.50;;;;;;;4.69;64.25;98582.99;104877;1264;112378;-67
2023/03/30 01:00:23;;;;;;;12.20;5.70;;;;;;;4.72;64.10;98576.58;104688;1270;101474;-67
2023/03/30 01:02:57;;;;;;;6.40;4.00;;;;;;;4.76;64.01;98570.74;104836;1262;97863;-67
2023/03/30 01:05:27;;;;;;;9.30;4.60;;;;;;;4.80;64.12;98570.89;104800;1272;97911;-68
2023/03/30 01:07:56;;;;;;;11.80;5.30;;;;;;;4.83;63.68;98565.07;104597;1264;97925;-67
2023/03/30 01:10:24;;;;;;;9.30;4.70;;;;;;;4.86;63.67;98568.70;104509;1273;111956;-68
2023/03/30 01:12:51;;;;;;;14.40;4.70;;;;;;;4.86;63.72;98564.67;104742;1262;99120;-67
2023/03/30 01:15:20;;;;;;;9.20;5.00;;;;;;;4.87;63.51;98563.48;104601;1269;108552;-67
2023/03/30 01:17:48;;;;;;;11.00;5.00;;;;;;;4.88;63.49;98560.11;104691;1264;98816;-65
2023/03/30 01:20:24;;;;;;;10.20;4.50;;;;;;;4.88;63.64;98556.30;104778;1273;98745;-67
2023/03/30 01:23:10;;;;;;;7.50;3.80;;;;;;;4.89;63.50;98556.02;104791;1262;111345;-66
2023/03/30 01:26:13;;;;;;;8.60;4.40;;;;;;;4.89;63.53;98552.98;104683;1264;99382;-66
2023/03/30 01:28:57;;;;;;;8.10;3.80;;;;;;;4.90;63.70;98547.39;104906;1272;108530;-67
2023/03/30 01:32:00;;;;;;;7.40;3.10;;;;;;;4.91;63.66;98552.39;104523;1274;97963;-67
2023/03/30 01:34:41;;;;;;;8.40;3.50;;;;;;;4.93;63.48;98551.50;104559;1258;98062;-67
2023/03/30 01:37:40;;;;;;;4.00;2.00;;;;;;;4.94;63.57;98554.82;104572;1264;111823;-67
2023/03/30 01:40:40;;;;;;;5.30;3.00;;;;;;;4.95;63.44;98556.55;104493;1279;98978;-67
2023/03/30 01:43:17;;;;;;;5.80;2.70;;;;;;;4.97;63.29;98553.06;104739;1264;108664;-67
2023/03/30 01:45:57;;;;;;;7.50;4.10;;;;;;;4.98;63.27;98550.73;104532;1264;99227;-67
2023/03/30 01:48:35;;;;;;;3.60;2.20;;;;;;;5.00;63.34;98547.13;104866;1263;98011;-67
2023/03/30 01:51:09;;;;;;;2.80;2.10;;;;;;;5.00;63.19;98554.45;104766;1264;112408;-67
2023/03/30 01:53:53;;;;;;;7.30;3.90;;;;;;;5.01;63.23;98550.10;104684;1257;99346;-67
2023/03/30 01:56:43;;;;;;;6.40;2.90;;;;;;;5.00;63.25;98546.31;104681;1264;108563;-67
2023/03/30 01:59:24;;;;;;;5.90;3.30;;;;;;;5.01;63.30;98548.70;104802;1264;98514;-67
2023/03/30 02:01:59;;;;;;;6.50;3.60;;;;;;;5.02;63.20;98548.43;104753;1257;97966;-67
2023/03/30 02:04:30;;;;;;;5.90;3.40;;;;;;;5.01;63.09;98542.50;104865;1263;112395;-67
2023/03/30 02:07:03;;;;;;;5.90;3.10;;;;;;;5.01;63.06;98544.46;104837;1264;99236;-67
2023/03/30 02:09:32;;;;;;;6.70;3.60;;;;;;;5.00;63.08;98545.33;104324;1269;108291;-67
2023/03/30 02:12:01;;;;;;;7.10;3.40;;;;;;;5.00;63.11;98543.83;104822;1271;97894;-68
2023/03/30 02:14:32;;;;;;;4.50;3.00;;;;;;;5.00;62.95;98541.05;104571;1264;98071;-70
2023/03/30 02:17:05;;;;;;;6.80;3.70;;;;;;;5.00;62.97;98540.29;104898;1257;112182;-67
2023/03/30 02:19:32;;;;;;;4.40;3.00;;;;;;;5.01;62.96;98541.69;104627;1258;99406;-66
2023/03/30 02:22:00;;;;;;;5.00;3.10;;;;;;;5.00;63.07;98537.40;104557;1276;108251;-67
2023/03/30 02:24:30;;;;;;;9.10;5.60;;;;;;;4.98;63.15;98537.86;104671;1263;97890;-67
2023/03/30 02:27:00;;;;;;;5.50;3.50;;;;;;;4.98;63.08;98534.10;104804;1271;97920;-68
2023/03/30 02:29:27;;;;;;;7.70;3.50;;;;;;;4.98;63.05;98537.52;104785;1261;112283;-67
2023/03/30 02:31:57;;;;;;;6.60;3.50;;;;;;;4.98;63.13;98537.05;104874;1272;99100;-67
2023/03/30 02:35:07;;;;;;;8.30;4.00;;;;;;;4.99;63.07;98534.85;104616;1263;108513;-67
2023/03/30 02:37:37;;;;;;;6.50;3.40;;;;;;;5.00;63.09;98538.66;104771;1264;97994;-66
2023/03/30 02:40:11;;;;;;;7.30;3.90;;;;;;;5.00;63.26;98536.80;104335;1258;304163;-67
2023/03/30 02:42:44;;;;;;;8.20;3.20;;;;;;;4.99;63.18;98532.95;104951;1269;112411;-66
2023/03/30 02:45:27;;;;;;;5.40;3.80;;;;;;;5.02;63.17;98535.99;104893;1264;99292;-67
2023/03/30 02:48:17;;;;;;;5.90;3.70;;;;;;;5.01;63.08;98534.95;104672;1271;108119;-67
2023/03/30 02:50:57;;;;;;;7.20;4.70;;;;;;;5.01;63.22;98533.11;104636;1269;98081;-67
2023/03/30 02:53:31;;;;;;;5.40;3.50;;;;;;;5.01;63.00;98529.52;104809;1269;97922;-67
2023/03/30 02:56:13;;;;;;;8.50;3.60;;;;;;;5.02;63.17;98525.71;104691;1273;112186;-67
2023/03/30 02:58:50;;;;;;;5.90;3.30;;;;;;;5.01;63.30;98523.00;104812;1262;98837;-67
2023/03/30 03:01:35;;;;;;;9.10;6.40;;;;;;;5.00;63.12;98514.33;104840;1269;108590;-67
2023/03/30 03:04:04;;;;;;;6.20;3.50;;;;;;;4.98;63.12;98509.02;104828;1257;97883;-67
2023/03/30 03:06:31;;;;;;;9.50;5.10;;;;;;;4.95;63.45;98502.50;104842;1264;99084;-67
2023/03/30 03:08:59;;;;;;;8.20;4.30;;;;;;;4.93;63.34;98501.77;104874;1262;112209;-67
2023/03/30 03:11:26;;;;;;;8.30;3.80;;;;;;;4.90;63.53;98498.35;104858;1259;97910;-67
2023/03/30 03:13:54;;;;;;;8.10;4.00;;;;;;;4.88;63.60;98497.64;104721;1264;99039;-67
2023/03/30 03:16:21;;;;;;;10.50;4.10;;;;;;;4.87;63.83;98496.52;104685;1264;97982;-67
2023/03/30 03:18:48;;;;;;;7.20;3.80;;;;;;;4.85;63.84;98495.39;104671;1258;98071;-68
2023/03/30 03:21:15;;;;;;;8.90;4.70;;;;;;;4.82;64.09;98500.02;104913;1269;97928;-67
2023/03/30 03:23:42;;;;;;;7.20;3.80;;;;;;;4.80;64.07;98502.36;104778;1262;98678;-66
2023/03/30 03:26:10;;;;;;;13.00;7.10;;;;;;;4.77;64.37;98499.99;104585;1263;97983;-67
2023/03/30 03:28:37;;;;;;;9.50;4.60;;;;;;;4.73;64.64;98489.42;104767;1261;97987;-67
2023/03/30 03:31:04;;;;;;;8.20;4.20;;;;;;;4.71;65.14;98488.61;104675;1262;99238;-67
2023/03/30 03:33:33;;;;;;;8.40;4.90;;;;;;;4.68;65.58;98486.67;104900;1258;97907;-68
2023/03/30 03:36:00;;;;;;;13.60;5.30;;;;;;;4.67;65.86;98485.54;104618;1262;98022;-68
2023/03/30 03:38:27;;;;;;;10.80;5.00;;;;;;;4.67;65.79;98478.80;104891;1261;97995;-67
2023/03/30 03:40:57;;;;;;;6.90;3.80;;;;;;;4.67;66.25;98466.21;104779;1262;99199;-67
2023/03/30 03:43:24;;;;;;;9.60;5.00;;;;;;;4.67;66.25;98459.98;104560;1276;98056;-67
2023/03/30 03:45:52;;;;;;;8.00;4.70;;;;;;;4.69;66.06;98465.50;104963;1262;110025;-65
2023/03/30 03:48:22;;;;;;;11.10;5.50;;;;;;;4.70;66.12;98472.83;104914;1274;99416;-65
2023/03/30 03:50:51;;;;;;;11.60;5.90;;;;;;;4.71;65.89;98471.78;104736;1271;108142;-66
2023/03/30 03:53:18;;;;;;;9.70;5.30;;;;;;;4.71;66.07;98470.33;104742;1262;97931;-66
2023/03/30 03:55:45;;;;;;;9.20;4.00;;;;;;;4.71;66.49;98473.00;104686;1262;99521;-66
2023/03/30 03:58:14;;;;;;;10.20;4.30;;;;;;;4.72;66.32;98471.95;104860;1258;97961;-66
2023/03/30 04:00:42;;;;;;;7.30;4.20;;;;;;;4.73;66.09;98470.42;104915;1258;99314;-66
2023/03/30 04:03:10;;;;;;;11.20;4.40;;;;;;;4.74;66.17;98471.77;104645;1264;108306;-66
2023/03/30 04:05:38;;;;;;;10.20;4.40;;;;;;;4.75;66.31;98470.41;104905;1264;97961;-66
2023/03/30 04:08:09;;;;;;;9.60;5.20;;;;;;;4.74;66.31;98462.71;104851;1273;97858;-66
2023/03/30 04:10:37;;;;;;;;;;;;;;;4.75;66.10;98462.64;104880;1262;113586;-66
2023/03/30 04:13:04;;;;;;;9.20;5.00;;;;;;;4.74;66.29;98463.41;104674;1273;98758;-67
2023/03/30 04:15:32;;;;;;;13.00;6.70;;;;;;;4.75;66.22;98462.16;104822;1264;98011;-67
2023/03/30 04:18:00;;;;;;;10.40;4.70;;;;;;;4.76;66.28;98459.66;104789;1261;97919;-68
2023/03/30 04:20:28;;;;;;;9.60;5.60;;;;;;;4.75;66.42;98454.13;104657;1264;97953;-67
2023/03/30 04:22:56;;;;;;;10.60;5.20;;;;;;;4.75;66.39;98447.56;104897;1257;111813;-67
2023/03/30 04:25:27;;;;;;;10.20;5.00;;;;;;;4.76;66.55;98441.41;104623;1266;99175;-67
2023/03/30 04:27:55;;;;;;;15.30;7.60;;;;;;;4.77;66.38;98439.40;104472;1260;109664;-67
2023/03/30 04:30:23;;;;;;;10.30;6.60;;;;;;;4.78;66.55;98436.68;104802;1262;97900;-67
2023/03/30 04:33:01;;;;;;;16.90;8.80;;;;;;;4.80;66.56;98435.31;104618;1273;98284;-67
2023/03/30 04:35:31;;;;;;;12.90;6.60;;;;;;;4.82;66.64;98424.81;104817;1257;112329;-67
2023/03/30 04:38:00;;;;;;;15.40;6.90;;;;;;;4.85;66.59;98427.67;104587;1262;99205;-68
2023/03/30 04:40:28;;;;;;;14.10;7.90;;;;;;;4.89;66.60;98421.94;104558;1263;107671;-67
2023/03/30 04:43:00;;;;;;;12.60;6.00;;;;;;;4.95;66.34;98419.52;104461;1264;98693;-66
2023/03/30 04:45:29;;;;;;;10.00;4.90;;;;;;;5.03;66.38;98411.75;104856;1261;98146;-67
2023/03/30 04:47:57;;;;;;;11.30;6.20;;;;;;;5.08;66.42;98408.13;104535;1264;111409;-67
2023/03/30 04:50:24;;;;;;;10.70;4.80;;;;;;;5.12;66.37;98409.28;104481;1258;97937;-67
2023/03/30 04:52:51;;;;;;;10.30;6.00;;;;;;;5.14;66.61;98399.43;104527;1273;97940;-69
2023/03/30 04:55:18;;;;;;;13.20;5.90;;;;;;;5.14;66.78;98398.55;104528;1258;97965;-70
2023/03/30 04:57:45;;;;;;;13.00;6.60;;;;;;;5.14;66.74;98401.95;104866;1262;97942;-67
2023/03/30 05:00:13;;;;;;;17.40;7.40;;;;;;;5.13;67.03;98399.83;104861;1258;97930;-66
2023/03/30 05:02:40;;;;;;;12.50;6.10;;;;;;;5.12;67.16;98400.20;104834;1271;98094;-66
2023/03/30 05:05:08;;;;;;;19.50;7.70;;;;;;;5.12;67.26;98401.52;104557;1276;99301;-66
2023/03/30 05:07:35;;;;;;;16.80;7.70;;;;;;;5.11;67.24;98402.30;104858;1261;97909;-66
2023/03/30 05:10:02;;;;;;;12.50;6.50;;;;;;;5.10;67.36;98402.04;104867;1262;97964;-68
2023/03/30 05:12:29;;;;;;;10.70;5.30;;;;;;;5.08;67.61;98401.55;104839;1260;97992;-67
2023/03/30 05:14:56;;;;;;;11.00;5.20;;;;;;;5.07;67.65;98399.77;104606;1259;97922;-67
2023/03/30 05:17:23;;;;;;;14.00;7.00;;;;;;;5.07;67.80;98396.11;104562;1258;97903;-67
2023/03/30 05:19:50;;;;;;;13.00;7.10;;;;;;;5.09;67.50;98396.76;104637;1264;97991;-66
2023/03/30 05:22:19;;;;;;;11.20;5.10;;;;;;;5.11;67.50;98396.14;104951;1258;97974;-66
2023/03/30 05:24:53;;;;;;;7.60;5.00;;;;;;;5.12;67.80;98395.38;104876;1261;98023;-67
2023/03/30 05:27:22;;;;;;;13.50;6.10;;;;;;;5.14;67.75;98402.86;104747;1270;108670;-67
2023/03/30 05:29:49;;;;;;;12.20;6.20;;;;;;;5.15;67.67;98399.86;104644;1262;98000;-67
2023/03/30 05:32:16;;;;;;;9.20;4.20;;;;;;;5.17;67.89;98401.98;104823;1261;97910;-67
2023/03/30 05:34:43;;;;;;;6.80;3.70;;;;;;;5.18;67.79;98396.97;104894;1271;97979;-67
2023/03/30 05:37:10;;;;;;;8.40;4.10;;;;;;;5.19;67.66;98396.36;104855;1260;98436;-67
2023/03/30 05:39:37;;;;;;;5.60;2.90;;;;;;;5.20;67.61;98388.85;104809;1261;97937;-67
2023/03/30 05:42:04;;;;;;;11.80;5.20;;;;;;;5.22;67.72;98387.80;104921;1257;98001;-68
2023/03/30 05:44:31;;;;;;;7.10;4.40;;;;;;;5.25;67.85;98387.52;105386;1256;112182;-67
2023/03/30 05:46:58;;;;;;;7.50;4.50;;;;;;;5.30;67.69;98386.44;104922;1261;98687;-66
2023/03/30 05:49:25;;;;;;;7.30;3.70;;;;;;;5.37;67.53;98382.78;104789;1257;97890;-66
2023/03/30 05:51:52;;;;;;;9.60;4.70;;;;;;;5.43;67.58;98365.55;104791;1263;97902;-66
2023/03/30 05:54:19;;;;;;;5.50;2.90;;;;;;;5.49;67.43;98355.66;104800;1261;97948;-68
2023/03/30 05:56:47;;;;;;;8.10;4.50;;;;;;;5.54;66.96;98358.16;104889;1261;97957;-68
2023/03/30 05:59:18;;;;;;;11.20;4.80;;;;;;;5.62;66.90;98350.80;104648;1257;97973;-67
2023/03/30 06:01:45;;;;;;;8.60;4.10;;;;;;;5.70;66.84;98339.02;104832;1261;108713;-67
2023/03/30 06:04:14;;;;;;;9.30;4.10;;;;;;;5.76;66.85;98322.04;104772;1261;97835;-68
2023/03/30 06:06:42;;;;;;;8.20;4.60;;;;;;;5.84;66.73;98315.02;104909;1261;97913;-67
2023/03/30 06:09:10;;;;;;;8.80;5.00;;;;;;;5.94;66.73;98309.70;104830;1263;98025;-66
2023/03/30 06:11:37;;;;;;;7.80;3.80;;;;;;;6.03;66.17;98305.40;104620;1264;99210;-67
2023/03/30 06:14:03;;;;;;;8.70;4.20;;;;;;;6.14;66.30;98309.95;104655;1263;97911;-67
2023/03/30 06:16:30;;;;;;;9.20;3.80;;;;;;;6.25;65.64;98306.05;104740;1263;99204;-68
2023/03/30 06:18:58;;;;;;;7.00;3.80;;;;;;;6.36;65.63;98311.83;104618;1263;99194;-69
2023/03/30 06:21:24;;;;;;;5.70;3.40;;;;;;;6.45;65.57;98306.73;104924;1261;97937;-67
2023/03/30 06:23:52;;;;;;;6.80;2.90;;;;;;;6.55;65.53;98312.75;105011;1261;98011;-66
2023/03/30 06:26:20;;;;;;;7.30;4.60;;;;;;;6.62;65.25;98314.89;104977;1272;98830;-66
2023/03/30 06:28:47;;;;;;;10.70;6.60;;;;;;;6.72;65.57;98314.99;104938;1257;99116;-67
2023/03/30 06:31:15;;;;;;;8.30;4.30;;;;;;;6.84;65.68;98317.98;104861;1260;99275;-66
2023/03/30 06:33:43;;;;;;;7.10;3.50;;;;;;;6.90;64.91;98317.49;104959;1263;98559;-67
2023/03/30 06:36:12;;;;;;;11.50;4.60;;;;;;;6.98;64.88;98314.25;104837;1263;97899;-66
2023/03/30 06:38:41;;;;;;;8.70;4.50;;;;;;;7.08;64.67;98314.95;104642;1266;107652;-67
2023/03/30 06:41:11;;;;;;;8.30;4.50;;;;;;;7.16;64.66;98305.02;104909;1271;99202;-68
2023/03/30 06:43:39;;;;;;;9.60;4.30;;;;;;;7.22;64.04;98311.72;105016;1261;97829;-68
2023/03/30 06:46:07;;;;;;;31.70;20.90;;;;;;;7.24;63.48;98312.82;105059;1257;112317;-67
2023/03/30 06:48:35;;;;;;;23.40;10.30;;;;;;;7.27;63.64;98321.73;104609;1258;97977;-66
2023/03/30 06:51:04;;;;;;;13.10;5.70;;;;;;;7.34;63.55;98319.64;104778;1263;108848;-66
2023/03/30 06:53:31;;;;;;;17.70;7.90;;;;;;;7.40;63.66;98322.80;104997;1261;98003;-66
2023/03/30 06:55:59;;;;;;;11.10;5.00;;;;;;;7.45;62.86;98321.63;104932;1260;97918;-67
2023/03/30 06:58:27;;;;;;;19.20;8.10;;;;;;;7.48;62.67;98320.58;104539;1264;110695;-66
2023/03/30 07:00:55;;;;;;;11.40;5.70;;;;;;;7.54;63.33;98320.73;105009;1257;99175;-66
2023/03/30 07:03:25;;;;;;;25.90;11.40;;;;;;;7.61;62.66;98321.77;104901;1261;108963;-66
2023/03/30 07:05:52;;;;;;;33.00;18.80;;;;;;;7.65;62.65;98318.89;104892;1261;97883;-66
2023/03/30 07:08:20;;;;;;;46.60;18.70;;;;;;;7.77;63.38;98320.41;104607;1257;99102;-66
2023/03/30 07:10:51;;;;;;;42.40;14.70;;;;;;;7.89;63.34;98317.04;104992;1270;112380;-67
2023/03/30 07:13:21;;;;;;;15.30;6.70;;;;;;;8.02;62.75;98314.61;104957;1261;98258;-67
2023/03/30 07:15:48;;;;;;;22.60;9.40;;;;;;;8.15;62.06;98307.67;104983;1261;97918;-66
2023/03/30 07:18:15;;;;;;;10.60;4.50;;;;;;;8.30;61.33;98313.85;104967;1256;97938;-66
2023/03/30 07:20:44;;;;;;;9.50;4.50;;;;;;;8.47;60.89;98319.33;104961;1257;99215;-67
2023/03/30 07:23:11;;;;;;;8.50;4.20;;;;;;;8.61;60.00;98317.71;104990;1261;111893;-66
2023/03/30 07:25:40;;;;;;;11.70;5.20;;;;;;;8.74;59.58;98314.77;104677;1263;99627;-68
2023/03/30 07:28:07;;;;;;;13.00;6.30;;;;;;;8.92;60.18;98314.49;104972;1257;108926;-66
2023/03/30 07:30:36;;;;;;;60.00;17.60;;;;;;;9.18;59.75;98313.41;104922;1261;99247;-68
2023/03/30 07:33:05;;;;;;;10.60;5.10;;;;;;;9.37;58.20;98309.41;104858;1274;97861;-67
2023/03/30 07:35:46;;;;;;;10.40;5.00;;;;;;;9.60;58.74;98306.06;104498;1264;111697;-65
2023/03/30 07:38:13;;;;;;;22.40;7.10;;;;;;;9.76;56.04;98304.97;104939;1261;99276;-69
2023/03/30 07:40:41;;;;;;;14.20;7.50;;;;;;;9.78;55.66;98303.11;104758;1260;108721;-69
2023/03/30 07:43:08;;;;;;;21.10;9.20;;;;;;;9.94;55.74;98301.13;104614;1266;97915;-67
2023/03/30 07:45:35;;;;;;;9.40;4.10;;;;;;;10.15;55.15;98300.13;104988;1260;97892;-66
2023/03/30 07:48:02;;;;;;;10.50;5.10;;;;;;;10.31;54.16;98299.21;105004;1268;97957;-67
2023/03/30 07:50:29;;;;;;;11.70;5.60;;;;;;;10.47;54.76;98300.40;104894;1272;97944;-67
2023/03/30 07:52:56;;;;;;;5.20;2.80;;;;;;;10.65;53.38;98301.87;104848;1260;99199;-67
2023/03/30 07:55:23;;;;;;;13.70;5.50;;;;;;;10.79;53.48;98303.30;104918;1272;98519;-67
2023/03/30 07:57:51;;;;;;;7.40;3.30;;;;;;;10.99;53.18;98302.92;104779;1273;97996;-67
2023/03/30 08:00:21;;;;;;;5.90;3.40;;;;;;;11.16;52.77;98305.31;104708;1271;98030;-67
2023/03/30 08:02:49;;;;;;;5.50;3.90;;;;;;;11.38;53.32;98306.52;104617;1263;98820;-68
2023/03/30 08:05:16;;;;;;;6.90;3.60;;;;;;;11.61;53.17;98308.01;104499;1257;107620;-67
2023/03/30 08:07:44;;;;;;;10.20;4.20;;;;;;;11.78;52.91;98303.58;104688;1261;97937;-67
2023/03/30 08:10:11;;;;;;;11.50;4.20;;;;;;;11.92;53.31;98299.89;104958;1261;97907;-66
2023/03/30 08:12:39;;;;;;;6.30;3.60;;;;;;;12.06;52.83;98289.63;104947;1257;98245;-66
2023/03/30 08:15:08;;;;;;;13.80;5.60;;;;;;;12.16;52.08;98291.33;104998;1263;99312;-66
2023/03/30 08:17:36;;;;;;;6.00;2.90;;;;;;;12.25;52.59;98287.84;104875;1257;108649;-67
2023/03/30 08:20:09;;;;;;;5.80;3.60;;;;;;;12.44;50.92;98291.59;104956;1262;97959;-66
2023/03/30 08:22:37;;;;;;;14.00;6.40;;;;;;;12.54;50.60;98288.76;104960;1263;97993;-67
2023/03/30 08:25:04;;;;;;;11.80;5.70;;;;;;;12.62;51.29;98282.84;104955;1260;112282;-66
2023/03/30 08:27:31;;;;;;;5.50;3.40;;;;;;;12.79;50.06;98282.27;104885;1272;99460;-67
2023/03/30 08:29:59;;;;;;;4.80;3.30;;;;;;;12.78;49.77;98282.45;104881;1262;108078;-66
2023/03/30 08:32:27;;;;;;;12.00;6.10;;;;;;;12.88;50.25;98281.70;104760;1258;97988;-67
2023/03/30 08:34:54;;;;;;;6.40;3.20;;;;;;;12.98;50.03;98276.56;104659;1257;97876;-67
2023/03/30 08:37:21;;;;;;;11.50;4.40;;;;;;;13.07;49.78;98273.94;104801;1261;98024;-68
2023/03/30 08:39:49;;;;;;;7.40;3.20;;;;;;;13.09;49.45;98264.48;104598;1261;99182;-67
2023/03/30 08:42:47;;;;;;;6.40;3.60;;;;;;;13.03;48.75;98259.68;104557;1262;99201;-67
2023/03/30 08:45:15;;;;;;;9.50;4.40;;;;;;;12.98;49.33;98253.12;104571;1273;98586;-67
2023/03/30 08:47:47;;;;;;;12.00;5.60;;;;;;;13.06;49.79;98253.72;104749;1262;97929;-67
2023/03/30 08:50:17;;;;;;;12.40;6.50;;;;;;;13.21;51.08;98249.28;104541;1265;111322;-67
2023/03/30 08:52:45;;;;;;;7.80;4.70;;;;;;;13.28;49.68;98254.31;104781;1275;99152;-68
2023/03/30 08:55:37;;;;;;;13.10;8.50;;;;;;;13.31;50.31;98253.15;104594;1264;106656;-68
2023/03/30 08:58:08;;;;;;;21.80;16.50;;;;;;;13.29;49.88;98246.05;104458;1266;98797;-72
2023/03/30 09:00:56;;;;;;;14.10;8.90;;;;;;;13.26;50.63;98246.28;104773;1262;98079;-70
2023/03/30 09:03:35;;;;;;;82.80;56.00;;;;;;;13.41;51.14;98244.26;104905;1261;112435;-67
2023/03/30 09:06:29;;;;;;;146.90;79.00;;;;;;;13.89;50.73;98240.34;104829;1257;99225;-69
2023/03/30 09:08:56;;;;;;;11.50;7.20;;;;;;;14.62;50.22;98235.27;104626;1261;108215;-66
2023/03/30 09:11:34;;;;;;;9.00;4.60;;;;;;;15.11;49.32;98228.96;104738;1260;97990;-67
2023/03/30 09:14:06;;;;;;;9.50;5.00;;;;;;;15.59;47.52;98222.48;104794;1259;97904;-67
2023/03/30 09:17:01;;;;;;;24.60;10.30;;;;;;;15.99;46.90;98218.64;104844;1263;112173;-67
2023/03/30 09:19:44;;;;;;;21.80;9.40;;;;;;;16.44;46.59;98221.87;104619;1258;99422;-67
2023/03/30 09:22:13;;;;;;;23.80;9.50;;;;;;;16.55;45.18;98222.73;104781;1263;108518;-67
2023/03/30 09:24:41;;;;;;;30.20;11.80;;;;;;;16.60;44.72;98215.85;104916;1262;97903;-67
2023/03/30 09:27:38;;;;;;;27.20;11.40;;;;;;;16.71;44.42;98209.52;104899;1261;98006;-67
2023/03/30 09:30:39;;;;;;;29.00;10.70;;;;;;;16.77;44.02;98201.71;104593;1264;111287;-68
2023/03/30 09:33:17;;;;;;;;;;;;;;;16.51;43.17;98194.90;104664;1261;99126;-67
2023/03/30 09:36:10;;;;;;;10.40;4.30;;;;;;;16.24;43.98;98182.52;104778;1264;108467;-66
2023/03/30 09:38:48;;;;;;;11.00;5.10;;;;;;;16.16;44.70;98174.30;104774;1263;98699;-67
2023/03/30 09:41:55;;;;;;;20.90;8.80;;;;;;;16.03;44.70;98173.42;104878;1257;97826;-66
2023/03/30 09:44:49;;;;;;;14.20;5.60;;;;;;;15.83;44.37;98171.77;104942;1262;112263;-67
2023/03/30 09:47:23;;;;;;;8.30;3.60;;;;;;;15.58;45.47;98168.93;104886;1262;99215;-67
2023/03/30 09:50:16;;;;;;;15.40;6.50;;;;;;;15.42;46.10;98165.42;104939;1257;108523;-67
2023/03/30 09:53:06;;;;;;;22.20;8.50;;;;;;;15.45;46.23;98163.99;104625;1265;99270;-67
2023/03/30 09:55:34;;;;;;;10.50;4.20;;;;;;;15.61;45.85;98152.36;104651;1264;97977;-67
2023/03/30 09:58:16;;;;;;;15.20;6.30;;;;;;;15.66;46.27;98143.72;104838;1265;112452;-67
2023/03/30 10:00:44;;;;;;;4.80;2.60;;;;;;;15.63;45.72;98143.56;104943;1258;98609;-67
2023/03/30 10:03:21;;;;;;;5.60;3.20;;;;;;;15.36;44.94;98143.61;104813;1262;108942;-67
2023/03/30 10:06:06;;;;;;;3.40;2.40;;;;;;;15.02;44.96;98142.31;104906;1262;98236;-67
2023/03/30 10:08:42;;;;;;;11.60;5.30;;;;;;;14.72;46.15;98142.73;104862;1263;97848;-67
2023/03/30 10:11:10;;;;;;;14.40;6.40;;;;;;;14.74;47.16;98141.43;104485;1266;111983;-67
2023/03/30 10:13:41;;;;;;;3.90;2.10;;;;;;;14.74;46.76;98144.59;104849;1262;97883;-67
2023/03/30 10:16:11;;;;;;;;;;;;;;;14.69;47.45;98148.64;104589;1257;108632;-67
2023/03/30 10:18:44;;;;;;;9.60;4.50;;;;;;;14.81;48.29;98145.65;104685;1257;97918;-71
2023/03/30 10:21:21;;;;;;;8.60;3.90;;;;;;;14.90;47.75;98146.68;104748;1257;98249;-71
2023/03/30 10:24:01;;;;;;;4.50;1.90;;;;;;;15.15;46.81;98134.81;104657;1265;111281;-67
2023/03/30 10:26:30;;;;;;;7.30;2.80;;;;;;;15.47;45.60;98125.14;104575;1274;99560;-66
2023/03/30 10:29:03;;;;;;;9.90;4.50;;;;;;;15.90;45.90;98122.91;104683;1276;106079;-67
2023/03/30 10:31:35;;;;;;;8.50;3.60;;;;;;;16.43;44.66;98116.05;104921;1257;97904;-69
2023/03/30 10:34:06;;;;;;;4.70;2.10;;;;;;;16.70;44.82;98115.11;104929;1267;98014;-67
2023/03/30 10:36:39;;;;;;;11.50;4.10;;;;;;;16.88;44.08;98114.86;104623;1264;110188;-69
2023/03/30 10:39:24;;;;;;;16.40;4.60;;;;;;;17.17;44.81;98116.22;104896;1267;99453;-70
2023/03/30 10:41:53;;;;;;;9.20;3.70;;;;;;;17.59;43.90;98108.43;104522;1264;107681;-69
2023/03/30 10:44:29;;;;;;;6.80;2.60;;;;;;;17.92;43.56;98096.65;104728;1263;97904;-68
2023/03/30 10:47:15;;;;;;;5.50;2.80;;;;;;;18.24;42.21;98103.71;104728;1262;97963;-67
2023/03/30 10:50:10;;;;;;;12.90;4.50;;;;;;;18.56;42.43;98099.02;104655;1262;113189;-68
2023/03/30 10:53:25;;;;;;;3.90;2.30;;;;;;;18.90;41.01;98090.46;104689;1261;98595;-68
2023/03/30 10:56:27;;;;;;;12.30;5.00;;;;;;;18.93;41.47;98089.21;104484;1268;108513;-68
2023/03/30 10:59:10;;;;;;;12.70;4.40;;;;;;;19.03;41.24;98081.12;104102;1271;98164;-66
2023/03/30 11:01:43;;;;;;;6.70;2.50;;;;;;;19.01;41.92;98073.08;104480;1266;99282;-66
2023/03/30 11:04:26;;;;;;;5.20;2.10;;;;;;;18.83;40.85;98079.61;104071;1285;111093;-66
2023/03/30 11:06:57;;;;;;;18.70;6.50;;;;;;;18.36;41.75;98075.79;104255;1264;99177;-67
2023/03/30 11:09:31;;;;;;;10.90;4.40;;;;;;;18.26;42.73;98078.53;104222;1266;107566;-66
2023/03/30 11:12:04;;;;;;;10.60;4.00;;;;;;;18.15;43.23;98084.52;104420;1268;99212;-67
2023/03/30 11:14:45;;;;;;;12.50;5.10;;;;;;;17.96;43.03;98092.83;104418;1268;98133;-67
2023/03/30 11:17:22;;;;;;;6.70;2.70;;;;;;;17.73;43.77;98081.63;104360;1269;112426;-67
2023/03/30 11:19:56;;;;;;;5.50;2.50;;;;;;;17.48;43.43;98073.47;104435;1268;99731;-67
2023/03/30 11:22:38;;;;;;;9.30;3.20;;;;;;;17.27;44.60;98065.11;104509;1268;108455;-67
2023/03/30 11:25:19;;;;;;;5.90;3.00;;;;;;;17.03;44.11;98057.63;104212;1264;99336;-67
2023/03/30 11:28:12;;;;;;;6.90;2.60;;;;;;;16.77;44.72;98048.98;104149;1270;97991;-67
2023/03/30 11:30:40;;;;;;;12.70;4.70;;;;;;;16.54;45.32;98041.73;104317;1267;110820;-67
2023/03/30 11:33:35;;;;;;;6.00;2.90;;;;;;;16.37;45.81;98030.95;104849;1273;99224;-67
2023/03/30 11:36:17;;;;;;;7.30;2.60;;;;;;;16.19;46.42;98026.06;104470;1265;107118;-68
2023/03/30 11:38:54;;;;;;;6.10;3.30;;;;;;;16.07;46.85;98033.27;104659;1257;98022;-67
2023/03/30 11:41:37;;;;;;;3.50;1.60;;;;;;;16.10;47.29;98030.08;104701;1263;99131;-66
2023/03/30 11:44:04;;;;;;;14.20;5.20;;;;;;;16.15;48.03;98031.89;104609;1263;110889;-69
2023/03/30 11:46:38;;;;;;;10.70;4.80;;;;;;;16.28;48.42;98031.10;104930;1263;99038;-67
2023/03/30 11:49:34;;;;;;;8.10;3.50;;;;;;;16.51;48.76;98031.02;104632;1264;107748;-67